sensor_id;sensor_type;location;lat;lon;timestamp;temperature;humidity
19058;DHT22;9662;53.612;9.914;2022-09-25T00:00:28;15.50;99.90
19058;DHT22;9662;53.612;9.914;2022-09-25T00:02:56;15.50;99.90
19058;DHT22;9662;53.612;9.914;2022-09-25T00:05:22;15.50;99.90
19058;DHT22;9662;53.612;9.914;2022-09-25T00:07:49;15.60;99.90
19058;DHT22;9662;53.612;9.914;2022-09-25T00:10:16;15.10;99.90
19058;DHT22;9662;53.612;9.914;2022-09-25T00:12:43;15.30;99.90
19058;DHT22;9662;53.612;9.914;2022-09-25T00:15:10;15.30;99.90
19058;DHT22;9662;53.612;9.914;2022-09-25T00:17:37;15.30;99.90
19058;DHT22;9662;53.612;9.914;2022-09-25T00:20:06;15.40;99.90
19058;DHT22;9662;53.612;9.914;2022-09-25T00:22:31;15.30;99.90
19058;DHT22;9662;53.612;9.914;2022-09-25T00:24:58;15.10;99.90
19058;DHT22;9662;53.612;9.914;2022-09-25T00:27:27;14.80;99.90
19058;DHT22;9662;53.612;9.914;2022-09-25T00:29:54;15.20;99.90
19058;DHT22;9662;53.612;9.914;2022-09-25T00:32:21;15.30;99.90
19058;DHT22;9662;53.612;9.914;2022-09-25T00:34:48;15.20;99.90
19058;DHT22;9662;53.612;9.914;2022-09-25T00:37:16;14.70;99.90
19058;DHT22;9662;53.612;9.914;2022-09-25T00:39:42;15.00;99.90
19058;DHT22;9662;53.612;9.914;2022-09-25T00:42:10;15.00;99.90
19058;DHT22;9662;53.612;9.914;2022-09-25T00:44:54;15.00;99.90
19058;DHT22;9662;53.612;9.914;2022-09-25T00:47:34;15.20;99.90
19058;DHT22;9662;53.612;9.914;2022-09-25T00:50:09;14.80;99.90
19058;DHT22;9662;53.612;9.914;2022-09-25T00:52:39;14.70;99.90
19058;DHT22;9662;53.612;9.914;2022-09-25T00:55:07;15.10;99.90
19058;DHT22;9662;53.612;9.914;2022-09-25T00:57:38;15.20;99.90
19058;DHT22;9662;53.612;9.914;2022-09-25T01:00:09;15.30;99.90
19058;DHT22;9662;53.612;9.914;2022-09-25T01:02:40;15.40;99.90
19058;DHT22;9662;53.612;9.914;2022-09-25T01:05:11;15.40;99.90
19058;DHT22;9662;53.612;9.914;2022-09-25T01:07:43;15.40;99.90
19058;DHT22;9662;53.612;9.914;2022-09-25T01:10:11;15.50;99.90
19058;DHT22;9662;53.612;9.914;2022-09-25T01:12:39;15.40;99.90
19058;DHT22;9662;53.612;9.914;2022-09-25T01:15:09;15.50;99.90
19058;DHT22;9662;53.612;9.914;2022-09-25T01:17:42;15.50;99.90
19058;DHT22;9662;53.612;9.914;2022-09-25T01:20:20;15.50;99.90
19058;DHT22;9662;53.612;9.914;2022-09-25T01:22:59;15.40;99.90
19058;DHT22;9662;53.612;9.914;2022-09-25T01:25:38;15.20;99.90
19058;DHT22;9662;53.612;9.914;2022-09-25T01:28:23;14.90;99.90
19058;DHT22;9662;53.612;9.914;2022-09-25T01:31:00;14.80;99.90
19058;DHT22;9662;53.612;9.914;2022-09-25T01:33:32;14.50;99.90
19058;DHT22;9662;53.612;9.914;2022-09-25T01:36:02;14.90;99.90
19058;DHT22;9662;53.612;9.914;2022-09-25T01:38:36;14.90;99.90
19058;DHT22;9662;53.612;9.914;2022-09-25T01:41:08;15.00;99.90
19058;DHT22;9662;53.612;9.914;2022-09-25T01:43:37;15.00;99.90
19058;DHT22;9662;53.612;9.914;2022-09-25T01:46:12;15.00;99.90
19058;DHT22;9662;53.612;9.914;2022-09-25T01:48:41;15.10;99.90
19058;DHT22;9662;53.612;9.914;2022-09-25T01:51:14;15.10;99.90
19058;DHT22;9662;53.612;9.914;2022-09-25T01:53:44;15.10;99.90
19058;DHT22;9662;53.612;9.914;2022-09-25T01:56:16;15.10;99.90
19058;DHT22;9662;53.612;9.914;2022-09-25T01:58:47;15.20;99.90
19058;DHT22;9662;53.612;9.914;2022-09-25T02:01:21;15.30;99.90
19058;DHT22;9662;53.612;9.914;2022-09-25T02:03:52;15.20;99.90
19058;DHT22;9662;53.612;9.914;2022-09-25T02:06:22;15.30;99.90
19058;DHT22;9662;53.612;9.914;2022-09-25T02:08:53;15.30;99.90
19058;DHT22;9662;53.612;9.914;2022-09-25T02:11:23;15.20;99.90
19058;DHT22;9662;53.612;9.914;2022-09-25T02:13:56;15.30;99.90
19058;DHT22;9662;53.612;9.914;2022-09-25T02:16:29;15.20;99.90
19058;DHT22;9662;53.612;9.914;2022-09-25T02:18:57;15.30;99.90
19058;DHT22;9662;53.612;9.914;2022-09-25T02:21:46;15.30;99.90
19058;DHT22;9662;53.612;9.914;2022-09-25T02:24:19;15.20;99.90
19058;DHT22;9662;53.612;9.914;2022-09-25T02:26:48;15.30;99.90
19058;DHT22;9662;53.612;9.914;2022-09-25T02:29:16;15.40;99.90
19058;DHT22;9662;53.612;9.914;2022-09-25T02:31:48;15.10;99.90
19058;DHT22;9662;53.612;9.914;2022-09-25T02:34:15;15.30;99.90
19058;DHT22;9662;53.612;9.914;2022-09-25T02:36:42;15.30;99.90
19058;DHT22;9662;53.612;9.914;2022-09-25T02:39:10;15.20;99.90
19058;DHT22;9662;53.612;9.914;2022-09-25T02:41:47;15.40;99.90
19058;DHT22;9662;53.612;9.914;2022-09-25T02:44:23;15.30;99.90
19058;DHT22;9662;53.612;9.914;2022-09-25T02:47:02;15.30;99.90
19058;DHT22;9662;53.612;9.914;2022-09-25T02:49:39;15.40;99.90
19058;DHT22;9662;53.612;9.914;2022-09-25T02:52:11;15.40;99.90
19058;DHT22;9662;53.612;9.914;2022-09-25T02:54:44;15.30;99.90
19058;DHT22;9662;53.612;9.914;2022-09-25T02:57:14;15.40;99.90
19058;DHT22;9662;53.612;9.914;2022-09-25T02:59:47;15.20;99.90
19058;DHT22;9662;53.612;9.914;2022-09-25T03:02:17;15.40;99.90
19058;DHT22;9662;53.612;9.914;2022-09-25T03:04:46;15.40;99.90
19058;DHT22;9662;53.612;9.914;2022-09-25T03:07:14;15.30;99.90
19058;DHT22;9662;53.612;9.914;2022-09-25T03:09:44;15.30;99.90
19058;DHT22;9662;53.612;9.914;2022-09-25T03:12:12;14.80;99.90
19058;DHT22;9662;53.612;9.914;2022-09-25T03:14:39;15.00;99.90
19058;DHT22;9662;53.612;9.914;2022-09-25T03:17:07;15.00;99.90
19058;DHT22;9662;53.612;9.914;2022-09-25T03:19:36;15.30;99.90
19058;DHT22;9662;53.612;9.914;2022-09-25T03:22:03;15.40;99.90
19058;DHT22;9662;53.612;9.914;2022-09-25T03:24:30;15.50;99.90
19058;DHT22;9662;53.612;9.914;2022-09-25T03:26:57;15.30;99.90
19058;DHT22;9662;53.612;9.914;2022-09-25T03:29:24;15.30;99.90
19058;DHT22;9662;53.612;9.914;2022-09-25T03:31:51;15.10;99.90
19058;DHT22;9662;53.612;9.914;2022-09-25T03:34:18;15.20;99.90
19058;DHT22;9662;53.612;9.914;2022-09-25T03:36:47;15.30;99.90
19058;DHT22;9662;53.612;9.914;2022-09-25T03:39:14;15.30;99.90
19058;DHT22;9662;53.612;9.914;2022-09-25T03:41:42;15.30;99.90
19058;DHT22;9662;53.612;9.914;2022-09-25T03:44:09;15.10;99.90
19058;DHT22;9662;53.612;9.914;2022-09-25T03:46:36;15.20;99.90
19058;DHT22;9662;53.612;9.914;2022-09-25T03:49:03;14.90;99.90
19058;DHT22;9662;53.612;9.914;2022-09-25T03:51:30;15.00;99.90
19058;DHT22;9662;53.612;9.914;2022-09-25T03:53:58;15.20;99.90
19058;DHT22;9662;53.612;9.914;2022-09-25T03:56:26;15.20;99.90
19058;DHT22;9662;53.612;9.914;2022-09-25T03:58:54;15.30;99.90
19058;DHT22;9662;53.612;9.914;2022-09-25T04:01:21;15.30;99.90
19058;DHT22;9662;53.612;9.914;2022-09-25T04:03:49;15.30;99.90
19058;DHT22;9662;53.612;9.914;2022-09-25T04:06:17;15.30;99.90
19058;DHT22;9662;53.612;9.914;2022-09-25T04:08:45;15.30;99.90
19058;DHT22;9662;53.612;9.914;2022-09-25T04:11:14;15.30;99.90
19058;DHT22;9662;53.612;9.914;2022-09-25T04:13:41;15.40;99.90
19058;DHT22;9662;53.612;9.914;2022-09-25T04:16:08;15.40;99.90
19058;DHT22;9662;53.612;9.914;2022-09-25T04:18:36;15.40;99.90
19058;DHT22;9662;53.612;9.914;2022-09-25T04:21:05;15.40;99.90
19058;DHT22;9662;53.612;9.914;2022-09-25T04:23:33;15.40;99.90
19058;DHT22;9662;53.612;9.914;2022-09-25T04:26:00;15.40;99.90
19058;DHT22;9662;53.612;9.914;2022-09-25T04:28:28;15.40;99.90
19058;DHT22;9662;53.612;9.914;2022-09-25T04:30:56;15.30;99.90
19058;DHT22;9662;53.612;9.914;2022-09-25T04:33:23;15.30;99.90
19058;DHT22;9662;53.612;9.914;2022-09-25T04:36:08;15.20;99.90
19058;DHT22;9662;53.612;9.914;2022-09-25T04:38:34;15.10;99.90
19058;DHT22;9662;53.612;9.914;2022-09-25T04:41:01;14.90;99.90
19058;DHT22;9662;53.612;9.914;2022-09-25T04:43:32;14.90;99.90
19058;DHT22;9662;53.612;9.914;2022-09-25T04:46:00;14.80;99.90
19058;DHT22;9662;53.612;9.914;2022-09-25T04:48:27;15.00;99.90
19058;DHT22;9662;53.612;9.914;2022-09-25T04:50:54;15.10;99.90
19058;DHT22;9662;53.612;9.914;2022-09-25T04:53:21;15.20;99.90
19058;DHT22;9662;53.612;9.914;2022-09-25T04:55:48;15.00;99.90
19058;DHT22;9662;53.612;9.914;2022-09-25T04:58:16;15.10;99.90
19058;DHT22;9662;53.612;9.914;2022-09-25T05:00:44;15.10;99.90
19058;DHT22;9662;53.612;9.914;2022-09-25T05:03:11;15.10;99.90
19058;DHT22;9662;53.612;9.914;2022-09-25T05:05:38;15.10;99.90
19058;DHT22;9662;53.612;9.914;2022-09-25T05:08:04;15.20;99.90
19058;DHT22;9662;53.612;9.914;2022-09-25T05:10:32;15.10;99.90
19058;DHT22;9662;53.612;9.914;2022-09-25T05:13:00;15.10;99.90
19058;DHT22;9662;53.612;9.914;2022-09-25T05:15:29;15.00;99.90
19058;DHT22;9662;53.612;9.914;2022-09-25T05:18:01;14.90;99.90
19058;DHT22;9662;53.612;9.914;2022-09-25T05:20:28;14.80;99.90
19058;DHT22;9662;53.612;9.914;2022-09-25T05:22:55;14.70;99.90
19058;DHT22;9662;53.612;9.914;2022-09-25T05:25:22;15.00;99.90
19058;DHT22;9662;53.612;9.914;2022-09-25T05:27:50;15.00;99.90
19058;DHT22;9662;53.612;9.914;2022-09-25T05:30:18;15.10;99.90
19058;DHT22;9662;53.612;9.914;2022-09-25T05:32:47;15.20;99.90
19058;DHT22;9662;53.612;9.914;2022-09-25T05:35:16;15.20;99.90
19058;DHT22;9662;53.612;9.914;2022-09-25T05:37:42;15.10;99.90
19058;DHT22;9662;53.612;9.914;2022-09-25T05:40:10;15.20;99.90
19058;DHT22;9662;53.612;9.914;2022-09-25T05:42:36;15.00;99.90
19058;DHT22;9662;53.612;9.914;2022-09-25T05:45:04;14.90;99.90
19058;DHT22;9662;53.612;9.914;2022-09-25T05:47:31;15.20;99.90
19058;DHT22;9662;53.612;9.914;2022-09-25T05:49:58;14.70;99.90
19058;DHT22;9662;53.612;9.914;2022-09-25T05:52:26;14.80;99.90
19058;DHT22;9662;53.612;9.914;2022-09-25T05:54:53;15.20;99.90
19058;DHT22;9662;53.612;9.914;2022-09-25T05:57:19;15.30;99.90
19058;DHT22;9662;53.612;9.914;2022-09-25T05:59:46;15.30;99.90
19058;DHT22;9662;53.612;9.914;2022-09-25T06:02:14;15.40;99.90
19058;DHT22;9662;53.612;9.914;2022-09-25T06:04:41;15.40;99.90
19058;DHT22;9662;53.612;9.914;2022-09-25T06:07:08;15.40;99.90
19058;DHT22;9662;53.612;9.914;2022-09-25T06:09:36;15.30;99.90
19058;DHT22;9662;53.612;9.914;2022-09-25T06:12:03;15.30;99.90
19058;DHT22;9662;53.612;9.914;2022-09-25T06:14:31;15.40;99.90
19058;DHT22;9662;53.612;9.914;2022-09-25T06:16:59;15.40;99.90
19058;DHT22;9662;53.612;9.914;2022-09-25T06:19:26;15.50;99.90
19058;DHT22;9662;53.612;9.914;2022-09-25T06:21:53;15.50;99.90
19058;DHT22;9662;53.612;9.914;2022-09-25T06:24:20;15.50;99.90
19058;DHT22;9662;53.612;9.914;2022-09-25T06:26:48;15.00;99.90
19058;DHT22;9662;53.612;9.914;2022-09-25T06:29:15;15.00;99.90
19058;DHT22;9662;53.612;9.914;2022-09-25T06:31:42;15.10;99.90
19058;DHT22;9662;53.612;9.914;2022-09-25T06:34:09;15.40;99.90
19058;DHT22;9662;53.612;9.914;2022-09-25T06:36:36;15.30;99.90
19058;DHT22;9662;53.612;9.914;2022-09-25T06:39:03;15.40;99.90
19058;DHT22;9662;53.612;9.914;2022-09-25T06:41:30;15.30;99.90
19058;DHT22;9662;53.612;9.914;2022-09-25T06:43:58;14.50;99.90
19058;DHT22;9662;53.612;9.914;2022-09-25T06:46:25;14.50;99.90
19058;DHT22;9662;53.612;9.914;2022-09-25T06:48:52;14.20;99.90
19058;DHT22;9662;53.612;9.914;2022-09-25T06:51:20;14.20;99.90
19058;DHT22;9662;53.612;9.914;2022-09-25T06:53:46;14.20;99.90
19058;DHT22;9662;53.612;9.914;2022-09-25T06:56:14;13.70;99.90
19058;DHT22;9662;53.612;9.914;2022-09-25T06:58:40;14.00;99.90
19058;DHT22;9662;53.612;9.914;2022-09-25T07:01:08;13.60;99.90
19058;DHT22;9662;53.612;9.914;2022-09-25T07:03:36;13.50;99.90
19058;DHT22;9662;53.612;9.914;2022-09-25T07:06:12;13.70;99.90
19058;DHT22;9662;53.612;9.914;2022-09-25T07:08:39;14.30;99.90
19058;DHT22;9662;53.612;9.914;2022-09-25T07:11:09;13.90;99.90
19058;DHT22;9662;53.612;9.914;2022-09-25T07:13:36;14.00;99.90
19058;DHT22;9662;53.612;9.914;2022-09-25T07:16:06;13.50;99.90
19058;DHT22;9662;53.612;9.914;2022-09-25T07:18:35;14.00;99.90
19058;DHT22;9662;53.612;9.914;2022-09-25T07:21:03;14.10;99.90
19058;DHT22;9662;53.612;9.914;2022-09-25T07:23:31;13.70;99.90
19058;DHT22;9662;53.612;9.914;2022-09-25T07:26:03;13.80;99.90
19058;DHT22;9662;53.612;9.914;2022-09-25T07:28:30;14.00;99.90
19058;DHT22;9662;53.612;9.914;2022-09-25T07:30:57;14.10;99.90
19058;DHT22;9662;53.612;9.914;2022-09-25T07:33:24;14.40;99.90
19058;DHT22;9662;53.612;9.914;2022-09-25T07:35:52;14.30;99.90
19058;DHT22;9662;53.612;9.914;2022-09-25T07:38:18;14.40;99.90
19058;DHT22;9662;53.612;9.914;2022-09-25T07:40:45;14.60;99.90
19058;DHT22;9662;53.612;9.914;2022-09-25T07:43:12;14.10;99.90
19058;DHT22;9662;53.612;9.914;2022-09-25T07:45:39;14.30;99.90
19058;DHT22;9662;53.612;9.914;2022-09-25T07:48:05;13.90;99.90
19058;DHT22;9662;53.612;9.914;2022-09-25T07:50:32;14.10;99.90
19058;DHT22;9662;53.612;9.914;2022-09-25T07:53:00;14.30;99.90
19058;DHT22;9662;53.612;9.914;2022-09-25T07:55:27;14.30;99.90
19058;DHT22;9662;53.612;9.914;2022-09-25T07:57:56;14.20;99.90
19058;DHT22;9662;53.612;9.914;2022-09-25T08:00:23;13.80;99.90
19058;DHT22;9662;53.612;9.914;2022-09-25T08:02:56;13.30;99.90
19058;DHT22;9662;53.612;9.914;2022-09-25T08:05:23;13.40;99.90
19058;DHT22;9662;53.612;9.914;2022-09-25T08:07:50;13.50;99.90
19058;DHT22;9662;53.612;9.914;2022-09-25T08:10:19;14.00;99.90
19058;DHT22;9662;53.612;9.914;2022-09-25T08:12:46;14.00;99.90
19058;DHT22;9662;53.612;9.914;2022-09-25T08:15:13;14.20;99.90
19058;DHT22;9662;53.612;9.914;2022-09-25T08:17:41;14.60;99.90
19058;DHT22;9662;53.612;9.914;2022-09-25T08:20:08;14.70;99.90
19058;DHT22;9662;53.612;9.914;2022-09-25T08:22:35;14.80;99.90
19058;DHT22;9662;53.612;9.914;2022-09-25T08:25:02;14.60;99.90
19058;DHT22;9662;53.612;9.914;2022-09-25T08:27:30;14.20;99.90
19058;DHT22;9662;53.612;9.914;2022-09-25T08:29:57;14.10;99.90
19058;DHT22;9662;53.612;9.914;2022-09-25T08:32:24;13.90;99.90
19058;DHT22;9662;53.612;9.914;2022-09-25T08:34:51;13.80;99.90
19058;DHT22;9662;53.612;9.914;2022-09-25T08:37:18;13.80;99.90
19058;DHT22;9662;53.612;9.914;2022-09-25T08:39:45;14.00;99.90
19058;DHT22;9662;53.612;9.914;2022-09-25T08:42:16;14.20;99.90
19058;DHT22;9662;53.612;9.914;2022-09-25T08:44:49;14.00;99.90
19058;DHT22;9662;53.612;9.914;2022-09-25T08:47:38;13.80;99.90
19058;DHT22;9662;53.612;9.914;2022-09-25T08:50:24;13.70;99.90
19058;DHT22;9662;53.612;9.914;2022-09-25T08:52:56;14.00;99.90
19058;DHT22;9662;53.612;9.914;2022-09-25T08:55:27;14.10;99.90
19058;DHT22;9662;53.612;9.914;2022-09-25T08:58:21;14.30;99.90
19058;DHT22;9662;53.612;9.914;2022-09-25T09:00:52;14.60;99.90
19058;DHT22;9662;53.612;9.914;2022-09-25T09:03:22;14.60;99.90
19058;DHT22;9662;53.612;9.914;2022-09-25T09:05:55;14.30;99.90
19058;DHT22;9662;53.612;9.914;2022-09-25T09:08:24;14.40;99.90
19058;DHT22;9662;53.612;9.914;2022-09-25T09:10:55;14.00;99.90
19058;DHT22;9662;53.612;9.914;2022-09-25T09:13:26;14.20;99.90
19058;DHT22;9662;53.612;9.914;2022-09-25T09:16:01;14.60;99.90
19058;DHT22;9662;53.612;9.914;2022-09-25T09:18:30;14.50;99.90
19058;DHT22;9662;53.612;9.914;2022-09-25T09:21:02;14.40;99.90
19058;DHT22;9662;53.612;9.914;2022-09-25T09:23:33;14.50;99.90
19058;DHT22;9662;53.612;9.914;2022-09-25T09:26:04;14.90;99.90
19058;DHT22;9662;53.612;9.914;2022-09-25T09:28:54;14.90;99.90
19058;DHT22;9662;53.612;9.914;2022-09-25T09:31:29;14.80;99.90
19058;DHT22;9662;53.612;9.914;2022-09-25T09:34:24;14.50;99.90
19058;DHT22;9662;53.612;9.914;2022-09-25T09:36:58;14.60;99.90
19058;DHT22;9662;53.612;9.914;2022-09-25T09:39:30;14.20;99.90
19058;DHT22;9662;53.612;9.914;2022-09-25T09:42:03;14.60;99.90
19058;DHT22;9662;53.612;9.914;2022-09-25T09:44:42;14.70;99.90
19058;DHT22;9662;53.612;9.914;2022-09-25T09:47:27;14.40;99.90
19058;DHT22;9662;53.612;9.914;2022-09-25T09:50:16;14.30;99.90
19058;DHT22;9662;53.612;9.914;2022-09-25T09:52:44;14.50;99.90
19058;DHT22;9662;53.612;9.914;2022-09-25T09:55:20;14.80;99.90
19058;DHT22;9662;53.612;9.914;2022-09-25T09:57:49;14.60;99.90
19058;DHT22;9662;53.612;9.914;2022-09-25T10:00:19;15.00;99.90
19058;DHT22;9662;53.612;9.914;2022-09-25T10:02:51;14.80;99.90
19058;DHT22;9662;53.612;9.914;2022-09-25T10:05:24;15.10;99.90
19058;DHT22;9662;53.612;9.914;2022-09-25T10:07:51;14.90;99.90
19058;DHT22;9662;53.612;9.914;2022-09-25T10:10:19;14.80;99.90
19058;DHT22;9662;53.612;9.914;2022-09-25T10:12:49;14.60;99.90
19058;DHT22;9662;53.612;9.914;2022-09-25T10:15:23;14.90;99.90
19058;DHT22;9662;53.612;9.914;2022-09-25T10:17:54;15.00;99.90
19058;DHT22;9662;53.612;9.914;2022-09-25T10:20:22;15.20;99.90
19058;DHT22;9662;53.612;9.914;2022-09-25T10:22:52;15.30;99.90
19058;DHT22;9662;53.612;9.914;2022-09-25T10:25:34;15.40;99.90
19058;DHT22;9662;53.612;9.914;2022-09-25T10:28:20;15.20;99.90
19058;DHT22;9662;53.612;9.914;2022-09-25T10:30:47;15.00;99.90
19058;DHT22;9662;53.612;9.914;2022-09-25T10:33:18;15.30;99.90
19058;DHT22;9662;53.612;9.914;2022-09-25T10:35:47;15.00;99.90
19058;DHT22;9662;53.612;9.914;2022-09-25T10:38:27;14.40;99.90
19058;DHT22;9662;53.612;9.914;2022-09-25T10:40:58;14.90;99.90
19058;DHT22;9662;53.612;9.914;2022-09-25T10:43:27;14.40;99.90
19058;DHT22;9662;53.612;9.914;2022-09-25T10:46:05;14.50;99.90
19058;DHT22;9662;53.612;9.914;2022-09-25T10:48:35;14.40;99.90
19058;DHT22;9662;53.612;9.914;2022-09-25T10:51:20;14.50;99.90
19058;DHT22;9662;53.612;9.914;2022-09-25T10:53:49;14.50;99.90
19058;DHT22;9662;53.612;9.914;2022-09-25T10:56:19;14.50;99.90
19058;DHT22;9662;53.612;9.914;2022-09-25T10:58:50;14.70;99.90
19058;DHT22;9662;53.612;9.914;2022-09-25T11:01:20;15.00;99.90
19058;DHT22;9662;53.612;9.914;2022-09-25T11:03:54;15.10;99.90
19058;DHT22;9662;53.612;9.914;2022-09-25T11:06:27;14.50;99.90
19058;DHT22;9662;53.612;9.914;2022-09-25T11:09:05;14.30;99.90
19058;DHT22;9662;53.612;9.914;2022-09-25T11:11:34;14.90;99.90
19058;DHT22;9662;53.612;9.914;2022-09-25T11:14:13;14.90;99.90
19058;DHT22;9662;53.612;9.914;2022-09-25T11:16:51;15.00;99.90
19058;DHT22;9662;53.612;9.914;2022-09-25T11:19:27;15.00;99.90
19058;DHT22;9662;53.612;9.914;2022-09-25T11:22:14;14.90;99.90
19058;DHT22;9662;53.612;9.914;2022-09-25T11:24:52;15.10;99.90
19058;DHT22;9662;53.612;9.914;2022-09-25T11:27:30;15.50;99.90
19058;DHT22;9662;53.612;9.914;2022-09-25T11:30:03;15.50;99.90
19058;DHT22;9662;53.612;9.914;2022-09-25T11:32:41;16.00;99.90
19058;DHT22;9662;53.612;9.914;2022-09-25T11:35:24;16.10;99.90
19058;DHT22;9662;53.612;9.914;2022-09-25T11:38:02;16.10;99.90
19058;DHT22;9662;53.612;9.914;2022-09-25T11:40:38;15.80;99.90
19058;DHT22;9662;53.612;9.914;2022-09-25T11:43:29;16.00;99.90
19058;DHT22;9662;53.612;9.914;2022-09-25T11:46:02;16.10;99.90
19058;DHT22;9662;53.612;9.914;2022-09-25T11:48:44;16.20;99.90
19058;DHT22;9662;53.612;9.914;2022-09-25T11:51:24;16.30;99.90
19058;DHT22;9662;53.612;9.914;2022-09-25T11:54:00;16.30;99.90
19058;DHT22;9662;53.612;9.914;2022-09-25T11:56:37;16.50;99.90
19058;DHT22;9662;53.612;9.914;2022-09-25T11:59:20;16.20;99.90
19058;DHT22;9662;53.612;9.914;2022-09-25T12:01:51;16.20;99.90
19058;DHT22;9662;53.612;9.914;2022-09-25T12:04:35;16.30;99.90
19058;DHT22;9662;53.612;9.914;2022-09-25T12:07:30;16.00;99.90
19058;DHT22;9662;53.612;9.914;2022-09-25T12:10:10;15.60;99.90
19058;DHT22;9662;53.612;9.914;2022-09-25T12:12:44;15.50;99.90
19058;DHT22;9662;53.612;9.914;2022-09-25T12:15:21;15.40;99.90
19058;DHT22;9662;53.612;9.914;2022-09-25T12:17:57;15.20;99.90
19058;DHT22;9662;53.612;9.914;2022-09-25T12:20:31;15.10;99.90
19058;DHT22;9662;53.612;9.914;2022-09-25T12:23:09;15.30;99.90
19058;DHT22;9662;53.612;9.914;2022-09-25T12:25:51;15.50;99.90
19058;DHT22;9662;53.612;9.914;2022-09-25T12:28:27;15.80;99.90
19058;DHT22;9662;53.612;9.914;2022-09-25T12:31:04;15.90;99.90
19058;DHT22;9662;53.612;9.914;2022-09-25T12:33:36;15.70;99.90
19058;DHT22;9662;53.612;9.914;2022-09-25T12:36:10;15.20;99.90
19058;DHT22;9662;53.612;9.914;2022-09-25T12:38:46;15.60;99.90
19058;DHT22;9662;53.612;9.914;2022-09-25T12:41:24;15.60;99.90
19058;DHT22;9662;53.612;9.914;2022-09-25T12:43:57;15.80;99.90
19058;DHT22;9662;53.612;9.914;2022-09-25T12:46:29;16.30;99.90
19058;DHT22;9662;53.612;9.914;2022-09-25T12:49:01;16.40;99.90
19058;DHT22;9662;53.612;9.914;2022-09-25T12:51:35;16.60;99.90
19058;DHT22;9662;53.612;9.914;2022-09-25T12:54:14;16.70;99.90
19058;DHT22;9662;53.612;9.914;2022-09-25T12:56:52;16.90;99.90
19058;DHT22;9662;53.612;9.914;2022-09-25T12:59:25;16.90;99.90
19058;DHT22;9662;53.612;9.914;2022-09-25T13:02:00;16.90;99.90
19058;DHT22;9662;53.612;9.914;2022-09-25T13:04:51;16.80;99.90
19058;DHT22;9662;53.612;9.914;2022-09-25T13:07:24;17.20;99.90
19058;DHT22;9662;53.612;9.914;2022-09-25T13:09:54;17.30;99.90
19058;DHT22;9662;53.612;9.914;2022-09-25T13:12:27;16.80;99.90
19058;DHT22;9662;53.612;9.914;2022-09-25T13:14:59;17.10;99.90
19058;DHT22;9662;53.612;9.914;2022-09-25T13:17:27;17.20;99.90
19058;DHT22;9662;53.612;9.914;2022-09-25T13:20:39;17.10;99.90
19058;DHT22;9662;53.612;9.914;2022-09-25T13:23:10;17.40;99.90
19058;DHT22;9662;53.612;9.914;2022-09-25T13:25:43;17.50;99.90
19058;DHT22;9662;53.612;9.914;2022-09-25T13:28:18;17.20;99.90
19058;DHT22;9662;53.612;9.914;2022-09-25T13:31:07;17.20;99.90
19058;DHT22;9662;53.612;9.914;2022-09-25T13:33:43;17.30;99.90
19058;DHT22;9662;53.612;9.914;2022-09-25T13:36:36;17.20;99.90
19058;DHT22;9662;53.612;9.914;2022-09-25T13:39:05;17.30;99.90
19058;DHT22;9662;53.612;9.914;2022-09-25T13:42:02;17.30;99.90
19058;DHT22;9662;53.612;9.914;2022-09-25T13:45:04;17.10;99.90
19058;DHT22;9662;53.612;9.914;2022-09-25T13:47:55;17.00;99.90
19058;DHT22;9662;53.612;9.914;2022-09-25T13:50:29;16.90;99.90
19058;DHT22;9662;53.612;9.914;2022-09-25T13:53:25;17.00;99.90
19058;DHT22;9662;53.612;9.914;2022-09-25T13:56:27;17.00;99.90
19058;DHT22;9662;53.612;9.914;2022-09-25T13:59:11;16.80;99.90
19058;DHT22;9662;53.612;9.914;2022-09-25T14:01:46;17.10;99.90
19058;DHT22;9662;53.612;9.914;2022-09-25T14:04:20;17.10;99.90
19058;DHT22;9662;53.612;9.914;2022-09-25T14:06:51;17.10;99.90
19058;DHT22;9662;53.612;9.914;2022-09-25T14:09:23;17.10;99.90
19058;DHT22;9662;53.612;9.914;2022-09-25T14:12:00;17.00;99.90
19058;DHT22;9662;53.612;9.914;2022-09-25T14:14:32;17.10;99.90
19058;DHT22;9662;53.612;9.914;2022-09-25T14:17:02;17.20;99.90
19058;DHT22;9662;53.612;9.914;2022-09-25T14:19:33;17.10;99.90
19058;DHT22;9662;53.612;9.914;2022-09-25T14:22:05;16.90;99.90
19058;DHT22;9662;53.612;9.914;2022-09-25T14:24:33;16.90;99.90
19058;DHT22;9662;53.612;9.914;2022-09-25T14:27:21;17.00;99.90
19058;DHT22;9662;53.612;9.914;2022-09-25T14:29:51;17.10;99.90
19058;DHT22;9662;53.612;9.914;2022-09-25T14:32:32;17.20;99.90
19058;DHT22;9662;53.612;9.914;2022-09-25T14:35:14;17.00;99.90
19058;DHT22;9662;53.612;9.914;2022-09-25T14:40:34;17.10;99.90
19058;DHT22;9662;53.612;9.914;2022-09-25T14:43:16;17.10;99.90
19058;DHT22;9662;53.612;9.914;2022-09-25T14:45:57;17.10;99.90
19058;DHT22;9662;53.612;9.914;2022-09-25T14:48:27;16.70;99.90
19058;DHT22;9662;53.612;9.914;2022-09-25T14:50:57;16.70;99.90
19058;DHT22;9662;53.612;9.914;2022-09-25T14:53:28;16.80;99.90
19058;DHT22;9662;53.612;9.914;2022-09-25T14:55:56;17.20;99.90
19058;DHT22;9662;53.612;9.914;2022-09-25T14:58:28;17.00;99.90
19058;DHT22;9662;53.612;9.914;2022-09-25T15:01:04;17.30;99.90
19058;DHT22;9662;53.612;9.914;2022-09-25T15:03:34;17.50;99.90
19058;DHT22;9662;53.612;9.914;2022-09-25T15:06:03;17.40;99.90
19058;DHT22;9662;53.612;9.914;2022-09-25T15:08:34;17.50;99.90
19058;DHT22;9662;53.612;9.914;2022-09-25T15:11:07;17.50;99.90
19058;DHT22;9662;53.612;9.914;2022-09-25T15:13:35;17.50;99.90
19058;DHT22;9662;53.612;9.914;2022-09-25T15:16:04;16.90;99.90
19058;DHT22;9662;53.612;9.914;2022-09-25T15:18:51;16.80;99.90
19058;DHT22;9662;53.612;9.914;2022-09-25T15:21:23;17.30;99.90
19058;DHT22;9662;53.612;9.914;2022-09-25T15:23:51;17.40;99.90
19058;DHT22;9662;53.612;9.914;2022-09-25T15:26:18;17.20;99.90
19058;DHT22;9662;53.612;9.914;2022-09-25T15:28:47;17.30;99.90
19058;DHT22;9662;53.612;9.914;2022-09-25T15:31:17;17.10;99.90
19058;DHT22;9662;53.612;9.914;2022-09-25T15:34:00;17.20;99.90
19058;DHT22;9662;53.612;9.914;2022-09-25T15:36:27;17.30;99.90
19058;DHT22;9662;53.612;9.914;2022-09-25T15:38:56;17.30;99.90
19058;DHT22;9662;53.612;9.914;2022-09-25T15:41:25;17.20;99.90
19058;DHT22;9662;53.612;9.914;2022-09-25T15:44:10;17.40;99.90
19058;DHT22;9662;53.612;9.914;2022-09-25T15:46:40;16.90;99.90
19058;DHT22;9662;53.612;9.914;2022-09-25T15:49:09;16.40;99.90
19058;DHT22;9662;53.612;9.914;2022-09-25T15:51:44;16.40;99.90
19058;DHT22;9662;53.612;9.914;2022-09-25T15:54:23;16.40;99.90
19058;DHT22;9662;53.612;9.914;2022-09-25T15:56:56;16.30;99.90
19058;DHT22;9662;53.612;9.914;2022-09-25T15:59:26;16.30;99.90
19058;DHT22;9662;53.612;9.914;2022-09-25T16:01:55;16.30;99.90
19058;DHT22;9662;53.612;9.914;2022-09-25T16:04:46;16.40;99.90
19058;DHT22;9662;53.612;9.914;2022-09-25T16:07:23;16.50;99.90
19058;DHT22;9662;53.612;9.914;2022-09-25T16:09:52;16.30;99.90
19058;DHT22;9662;53.612;9.914;2022-09-25T16:12:27;16.40;99.90
19058;DHT22;9662;53.612;9.914;2022-09-25T16:14:55;16.40;99.90
19058;DHT22;9662;53.612;9.914;2022-09-25T16:17:29;16.40;99.90